sensor_id;sensor_type;location;lat;lon;timestamp;pressure;altitude;pressure_sealevel;temperature;humidity
75699;BME280;64313;51.018;13.742;2023-09-12T00:00:51;99373.88;;;21.09;63.90
75699;BME280;64313;51.018;13.742;2023-09-12T00:03:19;99363.84;;;21.04;63.72
75699;BME280;64313;51.018;13.742;2023-09-12T00:05:53;99367.94;;;21.02;64.04
75699;BME280;64313;51.018;13.742;2023-09-12T00:08:18;99367.94;;;21.02;63.80
75699;BME280;64313;51.018;13.742;2023-09-12T00:10:44;99363.03;;;20.99;64.00
75699;BME280;64313;51.018;13.742;2023-09-12T00:13:09;99369.03;;;20.95;64.14
75699;BME280;64313;51.018;13.742;2023-09-12T00:15:35;99364.69;;;20.94;63.73
75699;BME280;64313;51.018;13.742;2023-09-12T00:18:00;99362.22;;;20.93;64.16
75699;BME280;64313;51.018;13.742;2023-09-12T00:20:25;99362.25;;;20.88;64.28
75699;BME280;64313;51.018;13.742;2023-09-12T00:22:51;99359.78;;;20.86;63.85
75699;BME280;64313;51.018;13.742;2023-09-12T00:25:18;99364.72;;;20.84;63.98
75699;BME280;64313;51.018;13.742;2023-09-12T00:27:43;99357.94;;;20.82;64.10
75699;BME280;64313;51.018;13.742;2023-09-12T00:30:09;99363.88;;;20.79;64.28
75699;BME280;64313;51.018;13.742;2023-09-12T00:32:35;99360.94;;;20.75;64.57
75699;BME280;64313;51.018;13.742;2023-09-12T00:35:00;99358.75;;;20.72;64.92
75699;BME280;64313;51.018;13.742;2023-09-12T00:37:25;99363.66;;;20.65;65.22
75699;BME280;64313;51.018;13.742;2023-09-12T00:39:51;99356.34;;;20.60;65.31
75699;BME280;64313;51.018;13.742;2023-09-12T00:42:17;99354.72;;;20.59;65.60
75699;BME280;64313;51.018;13.742;2023-09-12T00:44:42;99359.28;;;20.53;65.84
75699;BME280;64313;51.018;13.742;2023-09-12T00:47:08;99356.06;;;20.51;65.54
75699;BME280;64313;51.018;13.742;2023-09-12T00:49:34;99350.63;;;20.51;65.46
75699;BME280;64313;51.018;13.742;2023-09-12T00:52:00;99353.59;;;20.50;65.10
75699;BME280;64313;51.018;13.742;2023-09-12T00:54:27;99358.78;;;20.46;65.56
75699;BME280;64313;51.018;13.742;2023-09-12T00:56:52;99368.53;;;20.42;65.89
75699;BME280;64313;51.018;13.742;2023-09-12T00:59:18;99362.03;;;20.38;66.03
75699;BME280;64313;51.018;13.742;2023-09-12T01:01:44;99352.81;;;20.34;66.30
75699;BME280;64313;51.018;13.742;2023-09-12T01:04:10;99356.59;;;20.33;66.57
75699;BME280;64313;51.018;13.742;2023-09-12T01:06:36;99363.38;;;20.30;66.52
75699;BME280;64313;51.018;13.742;2023-09-12T01:09:03;99365.03;;;20.26;66.71
75699;BME280;64313;51.018;13.742;2023-09-12T01:11:28;99354.44;;;20.25;66.34
75699;BME280;64313;51.018;13.742;2023-09-12T01:13:53;99364.75;;;20.23;66.96
75699;BME280;64313;51.018;13.742;2023-09-12T01:16:19;99362.56;;;20.20;67.03
75699;BME280;64313;51.018;13.742;2023-09-12T01:18:44;99364.75;;;20.18;66.75
75699;BME280;64313;51.018;13.742;2023-09-12T01:21:28;99371.53;;;20.15;67.13
75699;BME280;64313;51.018;13.742;2023-09-12T01:27:28;99369.63;;;20.05;66.91
75699;BME280;64313;51.018;13.742;2023-09-12T01:29:57;99373.44;;;20.04;67.66
75699;BME280;64313;51.018;13.742;2023-09-12T01:32:23;99368.53;;;20.01;67.49
75699;BME280;64313;51.018;13.742;2023-09-12T01:34:48;99373.69;;;19.98;67.01
75699;BME280;64313;51.018;13.742;2023-09-12T01:37:14;99362.56;;;19.94;67.40
75699;BME280;64313;51.018;13.742;2023-09-12T01:39:40;99364.19;;;19.95;67.29
75699;BME280;64313;51.018;13.742;2023-09-12T01:42:06;99364.47;;;19.94;66.97
75699;BME280;64313;51.018;13.742;2023-09-12T01:44:34;99366.09;;;19.89;67.40
75699;BME280;64313;51.018;13.742;2023-09-12T01:47:03;99369.88;;;19.88;67.31
75699;BME280;64313;51.018;13.742;2023-09-12T01:49:30;99364.72;;;19.82;67.98
75699;BME280;64313;51.018;13.742;2023-09-12T01:51:56;99373.09;;;19.80;67.34
75699;BME280;64313;51.018;13.742;2023-09-12T01:54:25;99368.50;;;19.76;68.53
75699;BME280;64313;51.018;13.742;2023-09-12T01:56:51;99363.88;;;19.71;68.74
75699;BME280;64313;51.018;13.742;2023-09-12T01:59:16;99368.75;;;19.69;68.56
75699;BME280;64313;51.018;13.742;2023-09-12T02:01:41;99370.06;;;19.66;68.58
75699;BME280;64313;51.018;13.742;2023-09-12T02:04:08;99367.63;;;19.65;68.37
75699;BME280;64313;51.018;13.742;2023-09-12T02:06:37;99380.38;;;19.64;68.31
75699;BME280;64313;51.018;13.742;2023-09-12T02:09:02;99371.69;;;19.62;68.69
75699;BME280;64313;51.018;13.742;2023-09-12T02:11:27;99379.00;;;19.62;68.23
75699;BME280;64313;51.018;13.742;2023-09-12T02:13:53;99365.44;;;19.57;69.18
75699;BME280;64313;51.018;13.742;2023-09-12T02:16:18;99373.31;;;19.53;68.98
75699;BME280;64313;51.018;13.742;2023-09-12T02:18:44;99372.47;;;19.53;68.27
75699;BME280;64313;51.018;13.742;2023-09-12T02:21:09;99368.94;;;19.52;68.74
75699;BME280;64313;51.018;13.742;2023-09-12T02:23:34;99364.31;;;19.48;69.15
75699;BME280;64313;51.018;13.742;2023-09-12T02:26:00;99365.94;;;19.43;68.90
75699;BME280;64313;51.018;13.742;2023-09-12T02:28:25;99367.84;;;19.43;68.67
75699;BME280;64313;51.018;13.742;2023-09-12T02:30:51;99372.44;;;19.42;68.41
75699;BME280;64313;51.018;13.742;2023-09-12T02:33:16;99372.97;;;19.39;68.97
75699;BME280;64313;51.018;13.742;2023-09-12T02:35:41;99374.84;;;19.34;69.77
75699;BME280;64313;51.018;13.742;2023-09-12T02:38:07;99376.19;;;19.31;68.82
75699;BME280;64313;51.018;13.742;2023-09-12T02:40:33;99377.81;;;19.27;68.38
75699;BME280;64313;51.018;13.742;2023-09-12T02:42:58;99380.50;;;19.27;68.87
75699;BME280;64313;51.018;13.742;2023-09-12T02:45:23;99380.50;;;19.22;69.02
75699;BME280;64313;51.018;13.742;2023-09-12T02:47:49;99381.59;;;19.21;69.17
75699;BME280;64313;51.018;13.742;2023-09-12T02:50:14;99383.72;;;19.14;69.59
75699;BME280;64313;51.018;13.742;2023-09-12T02:52:39;99376.38;;;19.09;69.77
75699;BME280;64313;51.018;13.742;2023-09-12T02:55:05;99377.16;;;19.05;69.60
75699;BME280;64313;51.018;13.742;2023-09-12T02:57:31;99382.84;;;19.03;69.25
75699;BME280;64313;51.018;13.742;2023-09-12T02:59:56;99378.50;;;19.02;69.34
75699;BME280;64313;51.018;13.742;2023-09-12T03:02:22;99380.94;;;19.03;68.64
75699;BME280;64313;51.018;13.742;2023-09-12T03:04:47;99381.19;;;19.02;68.73
75699;BME280;64313;51.018;13.742;2023-09-12T03:07:13;99379.34;;;19.02;68.73
75699;BME280;64313;51.018;13.742;2023-09-12T03:09:38;99378.22;;;18.98;69.02
75699;BME280;64313;51.018;13.742;2023-09-12T03:12:07;99367.88;;;18.90;69.27
75699;BME280;64313;51.018;13.742;2023-09-12T03:14:33;99372.44;;;18.85;69.71
75699;BME280;64313;51.018;13.742;2023-09-12T03:16:58;99378.38;;;18.81;69.62
75699;BME280;64313;51.018;13.742;2023-09-12T03:19:24;99373.50;;;18.78;69.37
75699;BME280;64313;51.018;13.742;2023-09-12T03:21:49;99371.59;;;18.79;69.21
75699;BME280;64313;51.018;13.742;2023-09-12T03:24:14;99374.31;;;18.79;69.28
75699;BME280;64313;51.018;13.742;2023-09-12T03:26:43;99369.16;;;18.77;69.31
75699;BME280;64313;51.018;13.742;2023-09-12T03:29:08;99366.72;;;18.76;69.50
75699;BME280;64313;51.018;13.742;2023-09-12T03:31:35;99368.63;;;18.75;68.76
75699;BME280;64313;51.018;13.742;2023-09-12T03:34:00;99370.72;;;18.73;69.14
75699;BME280;64313;51.018;13.742;2023-09-12T03:36:26;99364.75;;;18.71;69.25
75699;BME280;64313;51.018;13.742;2023-09-12T03:38:52;99369.06;;;18.67;70.04
75699;BME280;64313;51.018;13.742;2023-09-12T03:41:18;99362.25;;;18.65;69.79
75699;BME280;64313;51.018;13.742;2023-09-12T03:43:44;99367.97;;;18.63;69.57
75699;BME280;64313;51.018;13.742;2023-09-12T03:46:09;99367.16;;;18.63;69.16
75699;BME280;64313;51.018;13.742;2023-09-12T03:48:34;99372.00;;;18.60;69.25
75699;BME280;64313;51.018;13.742;2023-09-12T03:51:02;99365.78;;;18.60;69.09
75699;BME280;64313;51.018;13.742;2023-09-12T03:53:29;99366.28;;;18.57;69.10
75699;BME280;64313;51.018;13.742;2023-09-12T03:55:55;99364.38;;;18.52;69.66
75699;BME280;64313;51.018;13.742;2023-09-12T03:58:20;99365.41;;;18.46;69.40
75699;BME280;64313;51.018;13.742;2023-09-12T04:00:46;99369.97;;;18.41;69.58
75699;BME280;64313;51.018;13.742;2023-09-12T04:03:11;99371.34;;;18.43;69.07
75699;BME280;64313;51.018;13.742;2023-09-12T04:05:37;99372.16;;;18.44;69.05
75699;BME280;64313;51.018;13.742;2023-09-12T04:08:02;99374.25;;;18.36;69.87
75699;BME280;64313;51.018;13.742;2023-09-12T04:10:28;99370.44;;;18.32;69.67
75699;BME280;64313;51.018;13.742;2023-09-12T04:12:53;99368.00;;;18.31;69.99
75699;BME280;64313;51.018;13.742;2023-09-12T04:15:18;99373.66;;;18.29;70.33
75699;BME280;64313;51.018;13.742;2023-09-12T04:17:44;99375.25;;;18.25;70.46
75699;BME280;64313;51.018;13.742;2023-09-12T04:20:09;99369.81;;;18.20;70.57
75699;BME280;64313;51.018;13.742;2023-09-12T04:22:39;99370.88;;;18.19;70.54
75699;BME280;64313;51.018;13.742;2023-09-12T04:25:05;99371.94;;;18.18;70.63
75699;BME280;64313;51.018;13.742;2023-09-12T04:27:31;99367.88;;;18.15;70.78
75699;BME280;64313;51.018;13.742;2023-09-12T04:29:56;99377.31;;;18.13;70.91
75699;BME280;64313;51.018;13.742;2023-09-12T04:32:22;99377.56;;;18.11;70.90
75699;BME280;64313;51.018;13.742;2023-09-12T04:34:49;99370.53;;;18.10;71.00
75699;BME280;64313;51.018;13.742;2023-09-12T04:37:15;99373.25;;;18.10;70.97
75699;BME280;64313;51.018;13.742;2023-09-12T04:39:40;99371.88;;;18.08;70.89
75699;BME280;64313;51.018;13.742;2023-09-12T04:42:05;99372.09;;;18.06;71.19
75699;BME280;64313;51.018;13.742;2023-09-12T04:44:35;99369.34;;;18.01;71.08
75699;BME280;64313;51.018;13.742;2023-09-12T04:47:01;99365.84;;;18.01;71.18
75699;BME280;64313;51.018;13.742;2023-09-12T04:49:28;99369.88;;;17.98;70.64
75699;BME280;64313;51.018;13.742;2023-09-12T04:51:53;99366.94;;;18.00;70.85
75699;BME280;64313;51.018;13.742;2023-09-12T04:54:19;99366.09;;;17.99;70.76
75699;BME280;64313;51.018;13.742;2023-09-12T04:56:44;99368.50;;;17.95;71.17
75699;BME280;64313;51.018;13.742;2023-09-12T04:59:09;99367.94;;;17.93;70.65
75699;BME280;64313;51.018;13.742;2023-09-12T05:01:35;99371.19;;;17.95;70.88
75699;BME280;64313;51.018;13.742;2023-09-12T05:04:00;99371.19;;;17.95;70.94
75699;BME280;64313;51.018;13.742;2023-09-12T05:06:25;99365.22;;;17.93;70.92
75699;BME280;64313;51.018;13.742;2023-09-12T05:08:51;99366.31;;;17.92;71.25
75699;BME280;64313;51.018;13.742;2023-09-12T05:11:16;99362.28;;;17.95;70.91
75699;BME280;64313;51.018;13.742;2023-09-12T05:13:42;99366.88;;;17.94;71.23
75699;BME280;64313;51.018;13.742;2023-09-12T05:16:07;99369.03;;;17.92;71.28
75699;BME280;64313;51.018;13.742;2023-09-12T05:18:32;99370.41;;;17.95;70.82
75699;BME280;64313;51.018;13.742;2023-09-12T05:20:58;99372.81;;;17.97;71.13
75699;BME280;64313;51.018;13.742;2023-09-12T05:23:23;99378.78;;;17.99;72.19
75699;BME280;64313;51.018;13.742;2023-09-12T05:25:48;99378.78;;;17.99;71.89
75699;BME280;64313;51.018;13.742;2023-09-12T05:28:14;99377.75;;;18.00;71.67
75699;BME280;64313;51.018;13.742;2023-09-12T05:30:43;99373.16;;;18.00;71.68
75699;BME280;64313;51.018;13.742;2023-09-12T05:33:08;99375.84;;;18.00;72.22
75699;BME280;64313;51.018;13.742;2023-09-12T05:35:34;99371.25;;;18.01;71.92
75699;BME280;64313;51.018;13.742;2023-09-12T05:37:59;99379.94;;;18.03;71.43
75699;BME280;64313;51.018;13.742;2023-09-12T05:40:25;99381.31;;;18.05;71.16
75699;BME280;64313;51.018;13.742;2023-09-12T05:42:50;99381.59;;;18.09;71.20
75699;BME280;64313;51.018;13.742;2023-09-12T05:45:15;99382.97;;;18.11;70.76
75699;BME280;64313;51.018;13.742;2023-09-12T05:47:41;99383.53;;;18.13;70.51
75699;BME280;64313;51.018;13.742;2023-09-12T05:50:07;99390.31;;;18.16;70.80
75699;BME280;64313;51.018;13.742;2023-09-12T05:52:33;99391.16;;;18.22;70.04
75699;BME280;64313;51.018;13.742;2023-09-12T05:54:59;99386.09;;;18.25;69.89
75699;BME280;64313;51.018;13.742;2023-09-12T05:57:24;99392.59;;;18.29;69.84
75699;BME280;64313;51.018;13.742;2023-09-12T05:59:50;99396.75;;;18.37;69.40
75699;BME280;64313;51.018;13.742;2023-09-12T06:02:15;99398.66;;;18.42;68.79
75699;BME280;64313;51.018;13.742;2023-09-12T06:04:40;99406.31;;;18.50;68.67
75699;BME280;64313;51.018;13.742;2023-09-12T06:07:06;99404.19;;;18.57;68.30
75699;BME280;64313;51.018;13.742;2023-09-12T06:09:31;99405.59;;;18.65;67.72
75699;BME280;64313;51.018;13.742;2023-09-12T06:11:57;99413.25;;;18.73;67.98
75699;BME280;64313;51.018;13.742;2023-09-12T06:14:22;99408.47;;;18.80;68.09
75699;BME280;64313;51.018;13.742;2023-09-12T06:16:48;99409.00;;;18.87;67.60
75699;BME280;64313;51.018;13.742;2023-09-12T06:19:13;99417.72;;;18.94;67.34
75699;BME280;64313;51.018;13.742;2023-09-12T06:21:42;99410.75;;;19.03;67.87
75699;BME280;64313;51.018;13.742;2023-09-12T06:24:16;99412.41;;;19.10;67.49
75699;BME280;64313;51.018;13.742;2023-09-12T06:26:42;99417.34;;;19.18;66.88
75699;BME280;64313;51.018;13.742;2023-09-12T06:29:08;99418.19;;;19.23;66.83
75699;BME280;64313;51.018;13.742;2023-09-12T06:31:34;99415.22;;;19.30;67.06
75699;BME280;64313;51.018;13.742;2023-09-12T06:34:01;99414.41;;;19.35;66.37
75699;BME280;64313;51.018;13.742;2023-09-12T06:36:27;99411.47;;;19.41;66.31
75699;BME280;64313;51.018;13.742;2023-09-12T06:38:57;99412.31;;;19.47;66.31
75699;BME280;64313;51.018;13.742;2023-09-12T06:41:22;99415.03;;;19.52;66.17
75699;BME280;64313;51.018;13.742;2023-09-12T06:43:48;99427.00;;;19.56;66.12
75699;BME280;64313;51.018;13.742;2023-09-12T06:46:13;99425.91;;;19.57;66.91
75699;BME280;64313;51.018;13.742;2023-09-12T06:48:39;99414.78;;;19.59;67.14
75699;BME280;64313;51.018;13.742;2023-09-12T06:51:05;99417.78;;;19.62;66.93
75699;BME280;64313;51.018;13.742;2023-09-12T06:53:31;99427.03;;;19.66;66.61
75699;BME280;64313;51.018;13.742;2023-09-12T06:55:57;99424.91;;;19.74;66.86
75699;BME280;64313;51.018;13.742;2023-09-12T06:58:25;99419.50;;;19.79;66.42
75699;BME280;64313;51.018;13.742;2023-09-12T07:00:51;99419.50;;;19.84;66.14
75699;BME280;64313;51.018;13.742;2023-09-12T07:03:16;99418.72;;;19.94;66.09
75699;BME280;64313;51.018;13.742;2023-09-12T07:05:42;99419.28;;;20.01;66.34
75699;BME280;64313;51.018;13.742;2023-09-12T07:08:08;99415.75;;;20.05;65.98
75699;BME280;64313;51.018;13.742;2023-09-12T07:10:34;99416.84;;;20.15;66.02
75699;BME280;64313;51.018;13.742;2023-09-12T07:12:59;99419.03;;;20.23;65.78
75699;BME280;64313;51.018;13.742;2023-09-12T07:15:24;99420.13;;;20.32;64.80
75699;BME280;64313;51.018;13.742;2023-09-12T07:17:50;99419.03;;;20.43;65.00
75699;BME280;64313;51.018;13.742;2023-09-12T07:20:15;99426.13;;;20.55;64.65
75699;BME280;64313;51.018;13.742;2023-09-12T07:22:43;99422.31;;;20.66;64.50
75699;BME280;64313;51.018;13.742;2023-09-12T07:25:08;99426.66;;;20.72;64.37
75699;BME280;64313;51.018;13.742;2023-09-12T07:27:36;99421.50;;;20.81;64.24
75699;BME280;64313;51.018;13.742;2023-09-12T07:30:04;99420.66;;;20.85;64.61
75699;BME280;64313;51.018;13.742;2023-09-12T07:32:29;99419.56;;;20.91;63.92
75699;BME280;64313;51.018;13.742;2023-09-12T07:34:55;99421.75;;;21.00;63.48
75699;BME280;64313;51.018;13.742;2023-09-12T07:37:20;99419.56;;;21.07;63.56
75699;BME280;64313;51.018;13.742;2023-09-12T07:39:45;99421.69;;;21.15;63.42
75699;BME280;64313;51.018;13.742;2023-09-12T07:42:10;99419.50;;;21.22;63.27
75699;BME280;64313;51.018;13.742;2023-09-12T07:44:36;99414.28;;;21.31;63.70
75699;BME280;64313;51.018;13.742;2023-09-12T07:47:01;99412.38;;;21.36;63.52
75699;BME280;64313;51.018;13.742;2023-09-12T07:49:26;99421.88;;;21.44;63.34
75699;BME280;64313;51.018;13.742;2023-09-12T07:51:52;99422.41;;;21.51;63.18
75699;BME280;64313;51.018;13.742;2023-09-12T07:54:17;99432.19;;;21.57;62.71
75699;BME280;64313;51.018;13.742;2023-09-12T07:56:43;99427.53;;;21.63;62.69
75699;BME280;64313;51.018;13.742;2023-09-12T07:59:09;99425.84;;;21.72;62.61
75699;BME280;64313;51.018;13.742;2023-09-12T08:01:35;99418.19;;;21.79;61.88
75699;BME280;64313;51.018;13.742;2023-09-12T08:04:00;99425.50;;;21.84;61.73
75699;BME280;64313;51.018;13.742;2023-09-12T08:06:26;99421.94;;;21.89;61.56
75699;BME280;64313;51.018;13.742;2023-09-12T08:08:51;99419.72;;;21.96;62.10
75699;BME280;64313;51.018;13.742;2023-09-12T08:11:17;99412.88;;;22.03;61.28
75699;BME280;64313;51.018;13.742;2023-09-12T08:13:42;99421.25;;;22.12;61.29
75699;BME280;64313;51.018;13.742;2023-09-12T08:16:08;99422.03;;;22.23;61.74
75699;BME280;64313;51.018;13.742;2023-09-12T08:18:33;99410.81;;;22.30;61.21
75699;BME280;64313;51.018;13.742;2023-09-12T08:20:58;99417.28;;;22.39;61.13
75699;BME280;64313;51.018;13.742;2023-09-12T08:23:24;99419.38;;;22.47;60.66
75699;BME280;64313;51.018;13.742;2023-09-12T08:25:49;99420.69;;;22.55;60.66
75699;BME280;64313;51.018;13.742;2023-09-12T08:28:14;99430.16;;;22.62;60.30
75699;BME280;64313;51.018;13.742;2023-09-12T08:30:40;99424.66;;;22.67;59.28
75699;BME280;64313;51.018;13.742;2023-09-12T08:33:06;99426.47;;;22.77;59.73
75699;BME280;64313;51.018;13.742;2023-09-12T08:35:32;99432.69;;;22.83;59.38
75699;BME280;64313;51.018;13.742;2023-09-12T08:37:58;99433.16;;;22.90;58.77
75699;BME280;64313;51.018;13.742;2023-09-12T08:40:23;99431.75;;;22.98;58.31
75699;BME280;64313;51.018;13.742;2023-09-12T08:42:51;99437.41;;;23.06;57.34
75699;BME280;64313;51.018;13.742;2023-09-12T08:45:18;99438.97;;;23.13;57.34
75699;BME280;64313;51.018;13.742;2023-09-12T08:47:50;99436.13;;;23.23;56.37
75699;BME280;64313;51.018;13.742;2023-09-12T08:50:16;99436.06;;;23.28;57.10
75699;BME280;64313;51.018;13.742;2023-09-12T08:52:44;99431.38;;;23.33;55.02
75699;BME280;64313;51.018;13.742;2023-09-12T08:55:10;99431.00;;;23.40;55.46
75699;BME280;64313;51.018;13.742;2023-09-12T08:57:40;99429.56;;;23.48;55.44
75699;BME280;64313;51.018;13.742;2023-09-12T09:00:06;99430.00;;;23.55;56.29
75699;BME280;64313;51.018;13.742;2023-09-12T09:02:34;99432.91;;;23.64;55.95
75699;BME280;64313;51.018;13.742;2023-09-12T09:05:02;99426.81;;;23.72;55.98
75699;BME280;64313;51.018;13.742;2023-09-12T09:07:32;99421.00;;;23.79;55.15
75699;BME280;64313;51.018;13.742;2023-09-12T09:09:59;99420.63;;;23.85;54.77
75699;BME280;64313;51.018;13.742;2023-09-12T09:12:26;99417.56;;;23.92;53.70
75699;BME280;64313;51.018;13.742;2023-09-12T09:14:52;99414.34;;;24.04;53.02
75699;BME280;64313;51.018;13.742;2023-09-12T09:17:19;99406.69;;;24.06;54.61
75699;BME280;64313;51.018;13.742;2023-09-12T09:19:44;99405.81;;;24.10;55.08
75699;BME280;64313;51.018;13.742;2023-09-12T09:22:10;99407.66;;;24.15;54.51
75699;BME280;64313;51.018;13.742;2023-09-12T09:24:36;99399.38;;;24.20;54.00
75699;BME280;64313;51.018;13.742;2023-09-12T09:27:01;99411.25;;;24.29;53.06
75699;BME280;64313;51.018;13.742;2023-09-12T09:29:28;99396.09;;;24.37;52.57
75699;BME280;64313;51.018;13.742;2023-09-12T09:31:58;99402.81;;;24.45;52.64
75699;BME280;64313;51.018;13.742;2023-09-12T09:34:25;99399.50;;;24.48;52.77
75699;BME280;64313;51.018;13.742;2023-09-12T09:36:54;99393.06;;;24.57;53.38
75699;BME280;64313;51.018;13.742;2023-09-12T09:39:22;99397.53;;;24.67;52.75
75699;BME280;64313;51.018;13.742;2023-09-12T09:41:52;99392.47;;;24.74;52.58
75699;BME280;64313;51.018;13.742;2023-09-12T09:44:18;99399.47;;;24.80;52.57
75699;BME280;64313;51.018;13.742;2023-09-12T09:46:44;99391.97;;;24.86;51.31
75699;BME280;64313;51.018;13.742;2023-09-12T09:49:17;99390.97;;;24.96;52.05
75699;BME280;64313;51.018;13.742;2023-09-12T09:51:44;99384.00;;;25.03;51.54
75699;BME280;64313;51.018;13.742;2023-09-12T09:54:11;99385.50;;;25.10;49.75
75699;BME280;64313;51.018;13.742;2023-09-12T09:56:53;99393.75;;;25.23;50.57
75699;BME280;64313;51.018;13.742;2023-09-12T09:59:27;99386.16;;;25.34;45.11
75699;BME280;64313;51.018;13.742;2023-09-12T10:01:56;99392.81;;;25.42;47.64
75699;BME280;64313;51.018;13.742;2023-09-12T10:04:23;99388.38;;;25.46;47.95
75699;BME280;64313;51.018;13.742;2023-09-12T10:06:49;99387.94;;;25.53;48.48
75699;BME280;64313;51.018;13.742;2023-09-12T10:09:15;99388.97;;;25.57;48.30
75699;BME280;64313;51.018;13.742;2023-09-12T10:11:43;99390.16;;;25.64;47.63
75699;BME280;64313;51.018;13.742;2023-09-12T10:14:09;99396.03;;;25.72;48.18
75699;BME280;64313;51.018;13.742;2023-09-12T10:16:48;99388.09;;;25.70;48.93
75699;BME280;64313;51.018;13.742;2023-09-12T10:19:23;99396.41;;;25.79;48.54
75699;BME280;64313;51.018;13.742;2023-09-12T10:22:06;99390.75;;;25.89;48.15
75699;BME280;64313;51.018;13.742;2023-09-12T10:24:35;99390.63;;;25.94;45.58
75699;BME280;64313;51.018;13.742;2023-09-12T10:27:02;99389.88;;;26.02;46.80
75699;BME280;64313;51.018;13.742;2023-09-12T10:29:27;99386.72;;;26.09;47.20
75699;BME280;64313;51.018;13.742;2023-09-12T10:31:53;99385.16;;;26.17;46.77
75699;BME280;64313;51.018;13.742;2023-09-12T10:34:20;99392.97;;;26.23;47.72
75699;BME280;64313;51.018;13.742;2023-09-12T10:36:46;99391.81;;;26.24;47.22
75699;BME280;64313;51.018;13.742;2023-09-12T10:39:14;99391.03;;;26.24;45.67
75699;BME280;64313;51.018;13.742;2023-09-12T10:41:40;99385.72;;;26.27;46.21
75699;BME280;64313;51.018;13.742;2023-09-12T10:44:16;99383.66;;;26.33;46.29
75699;BME280;64313;51.018;13.742;2023-09-12T10:46:42;99382.78;;;26.46;45.01
75699;BME280;64313;51.018;13.742;2023-09-12T10:49:09;99381.56;;;26.52;45.37
75699;BME280;64313;51.018;13.742;2023-09-12T10:51:47;99379.69;;;26.62;45.33
75699;BME280;64313;51.018;13.742;2023-09-12T10:54:14;99377.31;;;26.69;45.16
75699;BME280;64313;51.018;13.742;2023-09-12T10:56:40;99386.69;;;26.76;45.24
75699;BME280;64313;51.018;13.742;2023-09-12T11:01:42;99383.84;;;26.90;45.50
75699;BME280;64313;51.018;13.742;2023-09-12T11:06:49;99382.75;;;26.91;45.58
75699;BME280;64313;51.018;13.742;2023-09-12T11:11:46;99374.75;;;27.12;43.75
75699;BME280;64313;51.018;13.742;2023-09-12T11:14:14;99374.31;;;27.19;44.50
75699;BME280;64313;51.018;13.742;2023-09-12T11:19:43;99365.13;;;27.32;43.93
75699;BME280;64313;51.018;13.742;2023-09-12T11:22:27;99365.47;;;27.39;44.88
75699;BME280;64313;51.018;13.742;2023-09-12T11:24:54;99361.44;;;27.37;45.03
75699;BME280;64313;51.018;13.742;2023-09-12T11:27:21;99363.53;;;27.49;43.58
75699;BME280;64313;51.018;13.742;2023-09-12T11:29:47;99360.03;;;27.57;44.21
75699;BME280;64313;51.018;13.742;2023-09-12T11:32:25;99355.66;;;27.65;44.16
75699;BME280;64313;51.018;13.742;2023-09-12T11:34:52;99353.56;;;27.70;44.90
75699;BME280;64313;51.018;13.742;2023-09-12T11:37:25;99353.41;;;27.75;44.14
75699;BME280;64313;51.018;13.742;2023-09-12T11:39:51;99350.69;;;27.84;42.99
75699;BME280;64313;51.018;13.742;2023-09-12T11:42:18;99347.44;;;27.99;43.50
75699;BME280;64313;51.018;13.742;2023-09-12T11:44:43;99344.69;;;28.08;44.02
75699;BME280;64313;51.018;13.742;2023-09-12T11:47:10;99340.16;;;28.12;43.55
75699;BME280;64313;51.018;13.742;2023-09-12T11:49:40;99345.00;;;28.15;43.30
75699;BME280;64313;51.018;13.742;2023-09-12T11:52:10;99329.16;;;28.21;43.45
75699;BME280;64313;51.018;13.742;2023-09-12T11:54:38;99327.69;;;28.23;44.17
75699;BME280;64313;51.018;13.742;2023-09-12T11:57:04;99335.44;;;28.21;44.31
75699;BME280;64313;51.018;13.742;2023-09-12T11:59:29;99328.19;;;28.25;43.69
75699;BME280;64313;51.018;13.742;2023-09-12T12:01:55;99335.28;;;28.35;43.38
75699;BME280;64313;51.018;13.742;2023-09-12T12:04:22;99331.53;;;28.40;42.93
75699;BME280;64313;51.018;13.742;2023-09-12T12:06:52;99326.72;;;28.45;43.43
75699;BME280;64313;51.018;13.742;2023-09-12T12:09:18;99323.97;;;28.45;43.55
75699;BME280;64313;51.018;13.742;2023-09-12T12:11:45;99319.09;;;28.51;41.54
75699;BME280;64313;51.018;13.742;2023-09-12T12:14:15;99318.59;;;28.58;43.40
75699;BME280;64313;51.018;13.742;2023-09-12T12:16:44;99322.81;;;28.55;43.41
75699;BME280;64313;51.018;13.742;2023-09-12T12:19:11;99317.44;;;28.59;43.18
75699;BME280;64313;51.018;13.742;2023-09-12T12:21:38;99316.94;;;28.65;41.74
75699;BME280;64313;51.018;13.742;2023-09-12T12:24:03;99313.53;;;28.68;42.52
75699;BME280;64313;51.018;13.742;2023-09-12T12:26:30;99308.94;;;28.73;39.71
75699;BME280;64313;51.018;13.742;2023-09-12T12:28:55;99311.38;;;28.74;42.23
75699;BME280;64313;51.018;13.742;2023-09-12T12:31:22;99311.88;;;28.76;42.76
75699;BME280;64313;51.018;13.742;2023-09-12T12:33:52;99301.78;;;28.80;41.01
75699;BME280;64313;51.018;13.742;2023-09-12T12:36:18;99301.97;;;28.84;42.04
75699;BME280;64313;51.018;13.742;2023-09-12T12:38:46;99300.44;;;28.95;41.88
75699;BME280;64313;51.018;13.742;2023-09-12T12:41:16;99296.38;;;29.01;40.44
75699;BME280;64313;51.018;13.742;2023-09-12T12:43:42;99298.94;;;29.06;40.52
75699;BME280;64313;51.018;13.742;2023-09-12T12:46:11;99295.41;;;29.06;41.80
75699;BME280;64313;51.018;13.742;2023-09-12T12:48:43;99294.38;;;29.10;40.20
75699;BME280;64313;51.018;13.742;2023-09-12T12:51:25;99294.22;;;29.16;41.07
75699;BME280;64313;51.018;13.742;2023-09-12T12:54:02;99292.06;;;29.21;39.90
75699;BME280;64313;51.018;13.742;2023-09-12T12:56:27;99294.25;;;29.28;41.55
75699;BME280;64313;51.018;13.742;2023-09-12T12:58:58;99289.03;;;29.35;41.82
75699;BME280;64313;51.018;13.742;2023-09-12T13:01:24;99285.28;;;29.40;41.27